Terminal Aerodrome Forecast
Issued by NWS

Home | Current Version | Previous Version | Graphics & Text | Print | Product List | Glossary On
Versions: 1 2 3 4 5 6 7 8 9 10 11 12 13 14 15 16 17 18 19 20 21 22 23
000
FTUS43 KTOP 220300 AAB
TAFFOE
TAF AMD
KFOE 220303Z 2203/2224 14003KT 3SM -DZ BR OVC010
     FM220700 19005KT 1SM -DZ BR OVC008
      TEMPO 2207/2211 1/4SM -DZ FG OVC002
     FM221600 19010KT 5SM BR SCT015 BKN025=

USA.gov is the U.S. government's official web portal to all federal, state and local government web resources and services.